Snoqualmie River: Snoqualmie Falls station

back to: Snoqualmie river
Snoqualmie Falls station Summary - (NOAA Hydrograph: SQUW1)
flood stage: 13.43 ft
Latest reading:
Wed01/27 06:30 am 4.65 ft 1495 cfs (steady)
Past 24hr max:
Tue01/26 07:00 am 4.79 ft 1614 cfs
Forecasted crests: (published Tue 01/26/21 02:40 pm)
Mon02/01 10:00 am 4.16 ft 1101 cfs
Tue02/02 04:00 am 4.11 ft 1070 cfs

Snoqualmie Falls station Details

Latest Readings

Last 100 Readings:
Wed01/27 06:30 am 4.65 ft 1495 cfs
Wed01/27 06:15 am 4.65 ft 1495 cfs
Wed01/27 06:00 am 4.64 ft 1487 cfs
Wed01/27 05:45 am 4.65 ft 1495 cfs
Wed01/27 05:30 am 4.65 ft 1495 cfs
Wed01/27 05:15 am 4.65 ft 1495 cfs
Wed01/27 05:00 am 4.65 ft 1495 cfs
Wed01/27 04:45 am 4.67 ft 1512 cfs
Wed01/27 04:30 am 4.66 ft 1503 cfs
Wed01/27 04:15 am 4.67 ft 1512 cfs
Wed01/27 04:00 am 4.65 ft 1495 cfs
Wed01/27 03:45 am 4.67 ft 1512 cfs
Wed01/27 03:30 am 4.67 ft 1512 cfs
Wed01/27 03:15 am 4.66 ft 1503 cfs
Wed01/27 03:00 am 4.68 ft 1520 cfs
Wed01/27 02:45 am 4.67 ft 1512 cfs
Wed01/27 02:30 am 4.67 ft 1512 cfs
Wed01/27 02:15 am 4.68 ft 1520 cfs
Wed01/27 02:00 am 4.69 ft 1529 cfs
Wed01/27 01:45 am 4.69 ft 1529 cfs
Wed01/27 01:30 am 4.69 ft 1529 cfs
Wed01/27 01:15 am 4.69 ft 1529 cfs
Wed01/27 01:00 am 4.69 ft 1529 cfs
Wed01/27 12:45 am 4.68 ft 1520 cfs
Wed01/27 12:30 am 4.69 ft 1529 cfs
Wed01/27 12:15 am 4.69 ft 1529 cfs
Wed01/27 12:00 am 4.69 ft 1529 cfs
Tue01/26 11:45 pm 4.68 ft 1520 cfs
Tue01/26 11:30 pm 4.7 ft 1537 cfs
Tue01/26 11:15 pm 4.7 ft 1537 cfs
Tue01/26 11:00 pm 4.69 ft 1529 cfs
Tue01/26 10:45 pm 4.69 ft 1529 cfs
Tue01/26 10:30 pm 4.7 ft 1537 cfs
Tue01/26 10:15 pm 4.7 ft 1537 cfs
Tue01/26 10:00 pm 4.7 ft 1537 cfs
Tue01/26 09:45 pm 4.71 ft 1545 cfs
Tue01/26 09:30 pm 4.71 ft 1545 cfs
Tue01/26 09:15 pm 4.72 ft 1554 cfs
Tue01/26 09:00 pm 4.71 ft 1545 cfs
Tue01/26 08:45 pm 4.71 ft 1545 cfs
Tue01/26 08:30 pm 4.71 ft 1545 cfs
Tue01/26 08:15 pm 4.71 ft 1545 cfs
Tue01/26 08:00 pm 4.71 ft 1545 cfs
Tue01/26 07:45 pm 4.72 ft 1554 cfs
Tue01/26 07:30 pm 4.73 ft 1562 cfs
Tue01/26 07:15 pm 4.74 ft 1571 cfs
Tue01/26 07:00 pm 4.72 ft 1554 cfs
Tue01/26 06:45 pm 4.71 ft 1545 cfs
Tue01/26 06:30 pm 4.73 ft 1562 cfs
Tue01/26 06:15 pm 4.73 ft 1562 cfs
Tue01/26 06:00 pm 4.73 ft 1562 cfs
Tue01/26 05:45 pm 4.73 ft 1562 cfs
Tue01/26 05:30 pm 4.74 ft 1571 cfs
Tue01/26 05:15 pm 4.73 ft 1562 cfs
Tue01/26 05:00 pm 4.72 ft 1554 cfs
Tue01/26 04:45 pm 4.71 ft 1545 cfs
Tue01/26 04:30 pm 4.71 ft 1545 cfs
Tue01/26 04:15 pm 4.73 ft 1562 cfs
Tue01/26 04:00 pm 4.74 ft 1571 cfs
Tue01/26 03:45 pm 4.73 ft 1562 cfs
Tue01/26 03:30 pm 4.75 ft 1579 cfs
Tue01/26 03:15 pm 4.75 ft 1579 cfs
Tue01/26 03:00 pm 4.75 ft 1579 cfs
Tue01/26 02:45 pm 4.75 ft 1579 cfs
Tue01/26 02:30 pm 4.75 ft 1579 cfs
Tue01/26 02:15 pm 4.75 ft 1579 cfs
Tue01/26 02:00 pm 4.73 ft 1562 cfs
Tue01/26 01:45 pm 4.75 ft 1579 cfs
Tue01/26 01:30 pm 4.75 ft 1579 cfs
Tue01/26 01:15 pm 4.75 ft 1579 cfs
Tue01/26 01:00 pm 4.74 ft 1571 cfs
Tue01/26 12:45 pm 4.75 ft 1579 cfs
Tue01/26 12:30 pm 4.76 ft 1588 cfs
Tue01/26 12:15 pm 4.77 ft 1597 cfs
Tue01/26 12:00 pm 4.77 ft 1597 cfs
Tue01/26 11:45 am 4.76 ft 1588 cfs
Tue01/26 11:30 am 4.76 ft 1588 cfs
Tue01/26 11:15 am 4.75 ft 1579 cfs
Tue01/26 11:00 am 4.76 ft 1588 cfs
Tue01/26 10:45 am 4.76 ft 1588 cfs
Tue01/26 10:30 am 4.76 ft 1588 cfs
Tue01/26 10:15 am 4.76 ft 1588 cfs
Tue01/26 10:00 am 4.76 ft 1588 cfs
Tue01/26 09:45 am 4.78 ft 1605 cfs
Tue01/26 09:30 am 4.77 ft 1597 cfs
Tue01/26 09:15 am 4.77 ft 1597 cfs
Tue01/26 09:00 am 4.77 ft 1597 cfs
Tue01/26 08:45 am 4.77 ft 1597 cfs
Tue01/26 08:30 am 4.77 ft 1597 cfs
Tue01/26 08:15 am 4.77 ft 1597 cfs
Tue01/26 08:00 am 4.78 ft 1605 cfs
Tue01/26 07:45 am 4.77 ft 1597 cfs
Tue01/26 07:30 am 4.78 ft 1605 cfs
Tue01/26 07:15 am 4.79 ft 1614 cfs
Tue01/26 07:00 am 4.79 ft 1614 cfs
Tue01/26 06:45 am 4.78 ft 1605 cfs
Tue01/26 06:30 am 4.78 ft 1605 cfs
Tue01/26 06:15 am 4.78 ft 1605 cfs
Tue01/26 06:00 am 4.78 ft 1605 cfs
Tue01/26 05:45 am 4.79 ft 1614 cfs

Latest Forecasts

Currently Forecasted Readings:
Tue01/26 04:00 pm 4.69 ft 1525 cfs
Tue01/26 10:00 pm 4.61 ft 1465 cfs
Wed01/27 04:00 am 4.57 ft 1432 cfs
Wed01/27 10:00 am 4.53 ft 1400 cfs
Wed01/27 04:00 pm 4.49 ft 1369 cfs
Wed01/27 10:00 pm 4.45 ft 1337 cfs
Thu01/28 04:00 am 4.42 ft 1307 cfs
Thu01/28 10:00 am 4.39 ft 1277 cfs
Thu01/28 04:00 pm 4.35 ft 1248 cfs
Thu01/28 10:00 pm 4.32 ft 1221 cfs
Fri01/29 04:00 am 4.29 ft 1195 cfs
Fri01/29 10:00 am 4.26 ft 1169 cfs
Fri01/29 04:00 pm 4.23 ft 1144 cfs
Fri01/29 10:00 pm 4.2 ft 1122 cfs
Sat01/30 04:00 am 4.17 ft 1103 cfs
Sat01/30 10:00 am 4.13 ft 1083 cfs
Sat01/30 04:00 pm 4.1 ft 1061 cfs
Sat01/30 10:00 pm 4.06 ft 1041 cfs
Sun01/31 04:00 am 4.04 ft 1031 cfs
Sun01/31 10:00 am 4.05 ft 1033 cfs
Sun01/31 04:00 pm 4.06 ft 1039 cfs
Sun01/31 10:00 pm 4.09 ft 1058 cfs
Mon02/01 04:00 am 4.15 ft 1091 cfs
Mon02/01 10:00 am 4.16 ft 1101 cfs
Mon02/01 04:00 pm 4.13 ft 1083 cfs
Mon02/01 10:00 pm 4.11 ft 1069 cfs
Tue02/02 04:00 am 4.11 ft 1070 cfs
Tue02/02 10:00 am 4.1 ft 1062 cfs
Tue02/02 04:00 pm 4.04 ft 1030 cfs
Tue02/02 10:00 pm 3.98 ft 995 cfs
Wed02/03 04:00 am 3.93 ft 966 cfs
Wed02/03 10:00 am 3.87 ft 942 cfs
Wed02/03 04:00 pm 3.83 ft 922 cfs
Wed02/03 10:00 pm 3.79 ft 906 cfs
Thu02/04 04:00 am 3.76 ft 892 cfs
Thu02/04 10:00 am 3.74 ft 881 cfs
Thu02/04 04:00 pm 3.71 ft 870 cfs
Thu02/04 10:00 pm 3.69 ft 860 cfs
Fri02/05 04:00 am 3.68 ft 854 cfs

Snoqualmie River flood gauge data supplied by the
National Weather Service Northwest River Forecast Center.

Sign up for Floodzilla alerts.